EmailTwitter


Observations de surface / Québec / CYUL (71627)

Régions: Québec | Canada | États-Unis | Europe | France | UK | Ailleurs
Station
Affichage
Infos & localisation pour CYUL (71627) | Aide pour décoder les METARs

Observations prises le 2018-04-26 à 09H00 UTC à MONTREAL INTL A, QB (CYUL)

Etat du ciel: couvert.

Obstacle(s) à la visibilité: faible pluie et brume.

Température: 11.0 Celsius

Point de rosée: 11.0 Celsius

Humidité relative: 100%

Vents: Sud-ouest à 7 km/h ou 4 noeuds.

Pression au niveau moyen de la mer: 100.11 kilopascals.

Calage altimétrique: 100.10 kilopascals ou 29.56 pouces de mercure.

Visibilité horizontale: 2.50 milles terrestres ou 4.00 kilomètres.

Hauteur du plafond: 61 mètres ( 200 pieds ).

Observation METAR:

CYUL 260900Z 23004KT 2 1/2SM -RA BR BKN002 OVC007 11/11 A2956 RMK SF6SF2 SLP011=